sensor_id;sensor_type;location;lat;lon;timestamp;temperature;humidity
79489;SHT31;68949;53.176;18.088;2023-06-22T00:01:19;19.82;79.91
79489;SHT31;68949;53.176;18.088;2023-06-22T00:03:47;19.81;79.82
79489;SHT31;68949;53.176;18.088;2023-06-22T00:06:14;19.78;79.79
79489;SHT31;68949;53.176;18.088;2023-06-22T00:08:41;19.76;79.80
79489;SHT31;68949;53.176;18.088;2023-06-22T00:11:08;19.74;79.77
79489;SHT31;68949;53.176;18.088;2023-06-22T00:13:34;19.71;79.79
79489;SHT31;68949;53.176;18.088;2023-06-22T00:16:01;19.70;79.81
79489;SHT31;68949;53.176;18.088;2023-06-22T00:18:28;19.69;79.89
79489;SHT31;68949;53.176;18.088;2023-06-22T00:20:56;19.70;79.85
79489;SHT31;68949;53.176;18.088;2023-06-22T00:23:24;19.74;79.76
79489;SHT31;68949;53.176;18.088;2023-06-22T00:25:52;19.76;79.70
79489;SHT31;68949;53.176;18.088;2023-06-22T00:28:19;19.79;79.55
79489;SHT31;68949;53.176;18.088;2023-06-22T00:30:46;19.85;79.47
79489;SHT31;68949;53.176;18.088;2023-06-22T00:33:13;19.88;79.30
79489;SHT31;68949;53.176;18.088;2023-06-22T00:35:42;19.88;79.30
79489;SHT31;68949;53.176;18.088;2023-06-22T00:38:09;19.82;79.32
79489;SHT31;68949;53.176;18.088;2023-06-22T00:40:35;19.76;79.47
79489;SHT31;68949;53.176;18.088;2023-06-22T00:43:02;19.73;79.50
79489;SHT31;68949;53.176;18.088;2023-06-22T00:45:31;19.69;79.63
79489;SHT31;68949;53.176;18.088;2023-06-22T00:47:58;19.63;79.65
79489;SHT31;68949;53.176;18.088;2023-06-22T00:50:27;19.61;79.73
79489;SHT31;68949;53.176;18.088;2023-06-22T00:53:00;19.56;79.81
79489;SHT31;68949;53.176;18.088;2023-06-22T00:55:38;19.50;79.93
79489;SHT31;68949;53.176;18.088;2023-06-22T00:58:09;19.46;79.97
79489;SHT31;68949;53.176;18.088;2023-06-22T01:00:38;19.43;80.05
79489;SHT31;68949;53.176;18.088;2023-06-22T01:03:07;19.41;80.12
79489;SHT31;68949;53.176;18.088;2023-06-22T01:05:35;19.38;80.13
79489;SHT31;68949;53.176;18.088;2023-06-22T01:11:14;19.30;80.00
79489;SHT31;68949;53.176;18.088;2023-06-22T01:14:00;19.29;79.91
79489;SHT31;68949;53.176;18.088;2023-06-22T01:17:01;19.26;79.78
79489;SHT31;68949;53.176;18.088;2023-06-22T01:19:38;19.25;79.67
79489;SHT31;68949;53.176;18.088;2023-06-22T01:22:19;19.25;79.55
79489;SHT31;68949;53.176;18.088;2023-06-22T01:25:09;19.25;79.42
79489;SHT31;68949;53.176;18.088;2023-06-22T01:30:45;19.23;79.26
79489;SHT31;68949;53.176;18.088;2023-06-22T01:33:15;19.22;79.14
79489;SHT31;68949;53.176;18.088;2023-06-22T01:35:52;19.20;79.11
79489;SHT31;68949;53.176;18.088;2023-06-22T01:38:19;19.17;79.10
79489;SHT31;68949;53.176;18.088;2023-06-22T01:40:47;19.13;79.02
79489;SHT31;68949;53.176;18.088;2023-06-22T01:43:13;19.08;78.96
79489;SHT31;68949;53.176;18.088;2023-06-22T01:45:41;19.03;78.78
79489;SHT31;68949;53.176;18.088;2023-06-22T01:48:09;18.99;78.70
79489;SHT31;68949;53.176;18.088;2023-06-22T01:50:36;18.94;78.70
79489;SHT31;68949;53.176;18.088;2023-06-22T01:53:03;18.90;78.78
79489;SHT31;68949;53.176;18.088;2023-06-22T01:55:29;18.85;78.85
79489;SHT31;68949;53.176;18.088;2023-06-22T01:57:56;18.79;79.00
79489;SHT31;68949;53.176;18.088;2023-06-22T02:00:23;18.73;79.12
79489;SHT31;68949;53.176;18.088;2023-06-22T02:02:58;18.67;79.18
79489;SHT31;68949;53.176;18.088;2023-06-22T02:05:43;18.63;79.26
79489;SHT31;68949;53.176;18.088;2023-06-22T02:08:25;18.56;79.32
79489;SHT31;68949;53.176;18.088;2023-06-22T02:10:59;18.50;79.45
79489;SHT31;68949;53.176;18.088;2023-06-22T02:13:29;18.45;79.50
79489;SHT31;68949;53.176;18.088;2023-06-22T02:15:57;18.35;79.75
79489;SHT31;68949;53.176;18.088;2023-06-22T02:18:24;18.28;79.89
79489;SHT31;68949;53.176;18.088;2023-06-22T02:20:51;18.21;79.91
79489;SHT31;68949;53.176;18.088;2023-06-22T02:23:18;18.19;79.94
79489;SHT31;68949;53.176;18.088;2023-06-22T02:25:45;18.13;79.99
79489;SHT31;68949;53.176;18.088;2023-06-22T02:28:12;18.09;80.03
79489;SHT31;68949;53.176;18.088;2023-06-22T02:30:39;18.05;80.07
79489;SHT31;68949;53.176;18.088;2023-06-22T02:33:07;18.03;80.05
79489;SHT31;68949;53.176;18.088;2023-06-22T02:35:34;18.00;80.14
79489;SHT31;68949;53.176;18.088;2023-06-22T02:38:02;18.00;80.13
79489;SHT31;68949;53.176;18.088;2023-06-22T02:40:30;18.00;80.15
79489;SHT31;68949;53.176;18.088;2023-06-22T02:42:58;17.98;80.29
79489;SHT31;68949;53.176;18.088;2023-06-22T02:45:28;17.97;80.36
79489;SHT31;68949;53.176;18.088;2023-06-22T02:47:55;17.98;80.37
79489;SHT31;68949;53.176;18.088;2023-06-22T02:50:22;18.01;80.35
79489;SHT31;68949;53.176;18.088;2023-06-22T02:52:50;18.10;80.27
79489;SHT31;68949;53.176;18.088;2023-06-22T02:55:17;18.39;79.81
79489;SHT31;68949;53.176;18.088;2023-06-22T02:57:48;18.73;79.10
79489;SHT31;68949;53.176;18.088;2023-06-22T03:00:19;19.03;78.44
79489;SHT31;68949;53.176;18.088;2023-06-22T03:02:47;19.28;77.76
79489;SHT31;68949;53.176;18.088;2023-06-22T03:05:15;19.53;77.11
79489;SHT31;68949;53.176;18.088;2023-06-22T03:07:44;19.73;76.11
79489;SHT31;68949;53.176;18.088;2023-06-22T03:10:12;19.88;75.73
79489;SHT31;68949;53.176;18.088;2023-06-22T03:12:41;20.07;75.05
79489;SHT31;68949;53.176;18.088;2023-06-22T03:15:10;20.14;74.60
79489;SHT31;68949;53.176;18.088;2023-06-22T03:17:38;20.13;74.56
79489;SHT31;68949;53.176;18.088;2023-06-22T03:20:08;20.05;74.47
79489;SHT31;68949;53.176;18.088;2023-06-22T03:22:38;19.91;74.57
79489;SHT31;68949;53.176;18.088;2023-06-22T03:25:09;19.79;74.78
79489;SHT31;68949;53.176;18.088;2023-06-22T03:27:37;19.74;74.82
79489;SHT31;68949;53.176;18.088;2023-06-22T03:30:08;19.66;74.63
79489;SHT31;68949;53.176;18.088;2023-06-22T03:32:37;19.58;74.85
79489;SHT31;68949;53.176;18.088;2023-06-22T03:35:05;19.55;74.80
79489;SHT31;68949;53.176;18.088;2023-06-22T03:37:35;19.72;74.49
79489;SHT31;68949;53.176;18.088;2023-06-22T03:40:01;19.92;74.18
79489;SHT31;68949;53.176;18.088;2023-06-22T03:42:34;19.95;73.68
79489;SHT31;68949;53.176;18.088;2023-06-22T03:45:04;20.02;73.44
79489;SHT31;68949;53.176;18.088;2023-06-22T03:47:32;20.08;73.19
79489;SHT31;68949;53.176;18.088;2023-06-22T03:49:59;20.07;73.23
79489;SHT31;68949;53.176;18.088;2023-06-22T03:52:26;20.12;73.04
79489;SHT31;68949;53.176;18.088;2023-06-22T03:54:53;20.27;72.79
79489;SHT31;68949;53.176;18.088;2023-06-22T03:57:20;20.41;72.49
79489;SHT31;68949;53.176;18.088;2023-06-22T03:59:46;20.50;72.30
79489;SHT31;68949;53.176;18.088;2023-06-22T04:02:13;20.49;71.90
79489;SHT31;68949;53.176;18.088;2023-06-22T04:04:40;20.45;71.92
79489;SHT31;68949;53.176;18.088;2023-06-22T04:07:07;20.51;71.93
79489;SHT31;68949;53.176;18.088;2023-06-22T04:09:34;20.74;71.83
79489;SHT31;68949;53.176;18.088;2023-06-22T04:12:01;20.92;71.20
79489;SHT31;68949;53.176;18.088;2023-06-22T04:14:28;21.01;70.61
79489;SHT31;68949;53.176;18.088;2023-06-22T04:16:55;21.02;70.49
79489;SHT31;68949;53.176;18.088;2023-06-22T04:19:22;20.95;70.66
79489;SHT31;68949;53.176;18.088;2023-06-22T04:21:49;21.04;70.81
79489;SHT31;68949;53.176;18.088;2023-06-22T04:24:16;21.33;70.11
79489;SHT31;68949;53.176;18.088;2023-06-22T04:26:43;21.46;69.51
79489;SHT31;68949;53.176;18.088;2023-06-22T04:29:11;21.42;69.57
79489;SHT31;68949;53.176;18.088;2023-06-22T04:31:39;21.55;69.28
79489;SHT31;68949;53.176;18.088;2023-06-22T04:34:06;21.60;68.84
79489;SHT31;68949;53.176;18.088;2023-06-22T04:36:34;21.58;68.37
79489;SHT31;68949;53.176;18.088;2023-06-22T04:39:07;21.55;68.70
79489;SHT31;68949;53.176;18.088;2023-06-22T04:41:37;21.71;68.82
79489;SHT31;68949;53.176;18.088;2023-06-22T04:46:54;22.10;67.79
79489;SHT31;68949;53.176;18.088;2023-06-22T04:49:26;22.21;67.33
79489;SHT31;68949;53.176;18.088;2023-06-22T04:51:59;22.27;67.03
79489;SHT31;68949;53.176;18.088;2023-06-22T04:54:27;22.34;67.21
79489;SHT31;68949;53.176;18.088;2023-06-22T04:56:54;22.39;66.93
79489;SHT31;68949;53.176;18.088;2023-06-22T04:59:24;22.46;66.30
79489;SHT31;68949;53.176;18.088;2023-06-22T05:01:54;22.33;66.04
79489;SHT31;68949;53.176;18.088;2023-06-22T05:04:25;22.22;65.77
79489;SHT31;68949;53.176;18.088;2023-06-22T05:06:54;22.05;65.98
79489;SHT31;68949;53.176;18.088;2023-06-22T05:09:21;21.96;66.22
79489;SHT31;68949;53.176;18.088;2023-06-22T05:11:48;21.96;66.47
79489;SHT31;68949;53.176;18.088;2023-06-22T05:14:15;21.90;66.45
79489;SHT31;68949;53.176;18.088;2023-06-22T05:16:43;21.97;66.70
79489;SHT31;68949;53.176;18.088;2023-06-22T05:19:11;22.13;66.44
79489;SHT31;68949;53.176;18.088;2023-06-22T05:21:38;22.22;66.18
79489;SHT31;68949;53.176;18.088;2023-06-22T05:24:05;22.22;65.93
79489;SHT31;68949;53.176;18.088;2023-06-22T05:26:33;22.34;65.67
79489;SHT31;68949;53.176;18.088;2023-06-22T05:29:01;22.49;65.46
79489;SHT31;68949;53.176;18.088;2023-06-22T05:31:29;22.61;65.23
79489;SHT31;68949;53.176;18.088;2023-06-22T05:33:56;22.71;64.82
79489;SHT31;68949;53.176;18.088;2023-06-22T05:36:23;22.74;64.44
79489;SHT31;68949;53.176;18.088;2023-06-22T05:38:51;22.75;64.21
79489;SHT31;68949;53.176;18.088;2023-06-22T05:41:19;22.61;64.00
79489;SHT31;68949;53.176;18.088;2023-06-22T05:43:46;22.61;64.57
79489;SHT31;68949;53.176;18.088;2023-06-22T05:46:13;22.65;64.10
79489;SHT31;68949;53.176;18.088;2023-06-22T05:48:40;22.66;63.77
79489;SHT31;68949;53.176;18.088;2023-06-22T05:51:07;22.66;63.98
79489;SHT31;68949;53.176;18.088;2023-06-22T05:53:33;22.70;63.94
79489;SHT31;68949;53.176;18.088;2023-06-22T05:56:00;22.75;63.53
79489;SHT31;68949;53.176;18.088;2023-06-22T05:58:27;22.62;63.38
79489;SHT31;68949;53.176;18.088;2023-06-22T06:00:53;22.53;63.84
79489;SHT31;68949;53.176;18.088;2023-06-22T06:03:20;22.42;63.69
79489;SHT31;68949;53.176;18.088;2023-06-22T06:05:47;22.52;63.73
79489;SHT31;68949;53.176;18.088;2023-06-22T06:08:14;22.55;63.16
79489;SHT31;68949;53.176;18.088;2023-06-22T06:10:41;22.55;63.04
79489;SHT31;68949;53.176;18.088;2023-06-22T06:13:07;22.58;63.32
79489;SHT31;68949;53.176;18.088;2023-06-22T06:15:34;22.68;62.81
79489;SHT31;68949;53.176;18.088;2023-06-22T06:18:01;22.78;62.78
79489;SHT31;68949;53.176;18.088;2023-06-22T06:20:31;22.88;62.56
79489;SHT31;68949;53.176;18.088;2023-06-22T06:22:58;22.93;61.40
79489;SHT31;68949;53.176;18.088;2023-06-22T06:25:25;22.85;61.09
79489;SHT31;68949;53.176;18.088;2023-06-22T06:27:53;22.87;61.13
79489;SHT31;68949;53.176;18.088;2023-06-22T06:30:20;22.92;61.01
79489;SHT31;68949;53.176;18.088;2023-06-22T06:32:49;22.82;60.06
79489;SHT31;68949;53.176;18.088;2023-06-22T06:35:17;22.77;60.51
79489;SHT31;68949;53.176;18.088;2023-06-22T06:37:46;22.79;60.21
79489;SHT31;68949;53.176;18.088;2023-06-22T06:40:16;22.79;60.40
79489;SHT31;68949;53.176;18.088;2023-06-22T06:42:45;22.84;59.93
79489;SHT31;68949;53.176;18.088;2023-06-22T06:45:21;22.84;59.96
79489;SHT31;68949;53.176;18.088;2023-06-22T06:47:49;22.90;60.28
79489;SHT31;68949;53.176;18.088;2023-06-22T06:50:18;23.00;59.89
79489;SHT31;68949;53.176;18.088;2023-06-22T06:52:45;23.10;59.91
79489;SHT31;68949;53.176;18.088;2023-06-22T06:55:12;23.21;59.46
79489;SHT31;68949;53.176;18.088;2023-06-22T06:57:40;23.30;59.60
79489;SHT31;68949;53.176;18.088;2023-06-22T07:00:11;23.29;58.65
79489;SHT31;68949;53.176;18.088;2023-06-22T07:02:40;23.29;59.24
79489;SHT31;68949;53.176;18.088;2023-06-22T07:05:10;23.40;58.36
79489;SHT31;68949;53.176;18.088;2023-06-22T07:07:38;23.40;58.24
79489;SHT31;68949;53.176;18.088;2023-06-22T07:10:05;23.35;57.66
79489;SHT31;68949;53.176;18.088;2023-06-22T07:12:33;23.36;57.79
79489;SHT31;68949;53.176;18.088;2023-06-22T07:15:04;23.38;58.24
79489;SHT31;68949;53.176;18.088;2023-06-22T07:17:36;23.55;58.95
79489;SHT31;68949;53.176;18.088;2023-06-22T07:20:04;23.66;58.06
79489;SHT31;68949;53.176;18.088;2023-06-22T07:22:42;23.70;57.89
79489;SHT31;68949;53.176;18.088;2023-06-22T07:25:13;23.64;56.87
79489;SHT31;68949;53.176;18.088;2023-06-22T07:28:00;23.65;57.24
79489;SHT31;68949;53.176;18.088;2023-06-22T07:30:32;23.60;56.17
79489;SHT31;68949;53.176;18.088;2023-06-22T07:33:00;23.64;55.75
79489;SHT31;68949;53.176;18.088;2023-06-22T07:35:34;23.58;54.92
79489;SHT31;68949;53.176;18.088;2023-06-22T07:38:00;23.53;55.09
79489;SHT31;68949;53.176;18.088;2023-06-22T07:40:27;23.57;55.62
79489;SHT31;68949;53.176;18.088;2023-06-22T07:42:54;23.56;55.62
79489;SHT31;68949;53.176;18.088;2023-06-22T07:45:21;23.60;55.78
79489;SHT31;68949;53.176;18.088;2023-06-22T07:47:47;23.60;54.95
79489;SHT31;68949;53.176;18.088;2023-06-22T07:50:14;23.57;55.56
79489;SHT31;68949;53.176;18.088;2023-06-22T07:52:41;23.64;55.04
79489;SHT31;68949;53.176;18.088;2023-06-22T07:55:07;23.64;55.12
79489;SHT31;68949;53.176;18.088;2023-06-22T07:57:34;23.65;55.16
79489;SHT31;68949;53.176;18.088;2023-06-22T08:00:03;23.72;55.53
79489;SHT31;68949;53.176;18.088;2023-06-22T08:02:44;23.92;55.08
79489;SHT31;68949;53.176;18.088;2023-06-22T08:05:13;24.09;54.19
79489;SHT31;68949;53.176;18.088;2023-06-22T08:07:41;24.10;52.88
79489;SHT31;68949;53.176;18.088;2023-06-22T08:10:12;24.03;53.30
79489;SHT31;68949;53.176;18.088;2023-06-22T08:12:39;24.11;53.18
79489;SHT31;68949;53.176;18.088;2023-06-22T08:15:09;24.18;53.79
79489;SHT31;68949;53.176;18.088;2023-06-22T08:17:36;24.19;52.82
79489;SHT31;68949;53.176;18.088;2023-06-22T08:20:05;24.27;53.89
79489;SHT31;68949;53.176;18.088;2023-06-22T08:22:40;24.43;52.72
79489;SHT31;68949;53.176;18.088;2023-06-22T08:25:10;24.49;52.10
79489;SHT31;68949;53.176;18.088;2023-06-22T08:27:37;24.53;51.82
79489;SHT31;68949;53.176;18.088;2023-06-22T08:30:04;24.58;51.39
79489;SHT31;68949;53.176;18.088;2023-06-22T08:32:33;24.57;49.92
79489;SHT31;68949;53.176;18.088;2023-06-22T08:35:00;24.63;50.80
79489;SHT31;68949;53.176;18.088;2023-06-22T08:37:27;24.74;50.80
79489;SHT31;68949;53.176;18.088;2023-06-22T08:39:58;24.82;50.29
79489;SHT31;68949;53.176;18.088;2023-06-22T08:42:27;24.94;51.07
79489;SHT31;68949;53.176;18.088;2023-06-22T08:44:54;24.98;49.98
79489;SHT31;68949;53.176;18.088;2023-06-22T08:47:21;24.99;50.91
79489;SHT31;68949;53.176;18.088;2023-06-22T08:49:49;25.04;49.78
79489;SHT31;68949;53.176;18.088;2023-06-22T08:52:17;25.09;49.64
79489;SHT31;68949;53.176;18.088;2023-06-22T08:54:45;25.19;50.24
79489;SHT31;68949;53.176;18.088;2023-06-22T08:57:12;25.11;50.45
79489;SHT31;68949;53.176;18.088;2023-06-22T08:59:39;25.17;51.33
79489;SHT31;68949;53.176;18.088;2023-06-22T09:02:06;25.26;50.81
79489;SHT31;68949;53.176;18.088;2023-06-22T09:04:33;25.33;50.69
79489;SHT31;68949;53.176;18.088;2023-06-22T09:07:01;25.43;50.80
79489;SHT31;68949;53.176;18.088;2023-06-22T09:09:28;25.60;50.24
79489;SHT31;68949;53.176;18.088;2023-06-22T09:11:55;25.76;48.96
79489;SHT31;68949;53.176;18.088;2023-06-22T09:14:22;25.74;48.35
79489;SHT31;68949;53.176;18.088;2023-06-22T09:16:49;25.72;47.92
79489;SHT31;68949;53.176;18.088;2023-06-22T09:19:15;25.76;48.39
79489;SHT31;68949;53.176;18.088;2023-06-22T09:21:42;25.66;47.71
79489;SHT31;68949;53.176;18.088;2023-06-22T09:24:09;25.66;48.47
79489;SHT31;68949;53.176;18.088;2023-06-22T09:26:35;25.70;47.51
79489;SHT31;68949;53.176;18.088;2023-06-22T09:29:04;25.71;47.73
79489;SHT31;68949;53.176;18.088;2023-06-22T09:31:32;25.85;47.72
79489;SHT31;68949;53.176;18.088;2023-06-22T09:33:59;25.92;46.59
79489;SHT31;68949;53.176;18.088;2023-06-22T09:36:25;25.94;46.40
79489;SHT31;68949;53.176;18.088;2023-06-22T09:38:52;26.05;46.27
79489;SHT31;68949;53.176;18.088;2023-06-22T09:41:22;26.10;45.90
79489;SHT31;68949;53.176;18.088;2023-06-22T09:43:50;26.07;45.98
79489;SHT31;68949;53.176;18.088;2023-06-22T09:46:18;26.15;46.49
79489;SHT31;68949;53.176;18.088;2023-06-22T09:48:44;26.33;46.18
79489;SHT31;68949;53.176;18.088;2023-06-22T09:51:11;26.41;44.32
79489;SHT31;68949;53.176;18.088;2023-06-22T09:53:38;26.33;43.89
79489;SHT31;68949;53.176;18.088;2023-06-22T09:56:05;26.25;44.05
79489;SHT31;68949;53.176;18.088;2023-06-22T09:58:32;26.33;45.15
79489;SHT31;68949;53.176;18.088;2023-06-22T10:00:59;26.43;44.13
79489;SHT31;68949;53.176;18.088;2023-06-22T10:03:27;26.49;43.53
79489;SHT31;68949;53.176;18.088;2023-06-22T10:05:54;26.46;42.15
79489;SHT31;68949;53.176;18.088;2023-06-22T10:08:20;26.44;42.56
79489;SHT31;68949;53.176;18.088;2023-06-22T10:10:47;26.47;42.60
79489;SHT31;68949;53.176;18.088;2023-06-22T10:13:13;26.56;41.18
79489;SHT31;68949;53.176;18.088;2023-06-22T10:15:41;26.53;41.57
79489;SHT31;68949;53.176;18.088;2023-06-22T10:18:09;26.59;42.31
79489;SHT31;68949;53.176;18.088;2023-06-22T10:20:36;26.60;40.86
79489;SHT31;68949;53.176;18.088;2023-06-22T10:23:03;26.47;40.91
79489;SHT31;68949;53.176;18.088;2023-06-22T10:25:29;26.40;41.13
79489;SHT31;68949;53.176;18.088;2023-06-22T10:27:56;26.40;41.35
79489;SHT31;68949;53.176;18.088;2023-06-22T10:30:23;26.37;41.36
79489;SHT31;68949;53.176;18.088;2023-06-22T10:32:50;26.43;42.27
79489;SHT31;68949;53.176;18.088;2023-06-22T10:35:17;26.56;41.27
79489;SHT31;68949;53.176;18.088;2023-06-22T10:37:44;26.51;40.70
79489;SHT31;68949;53.176;18.088;2023-06-22T10:40:13;26.33;41.71
79489;SHT31;68949;53.176;18.088;2023-06-22T10:42:45;26.31;41.97
79489;SHT31;68949;53.176;18.088;2023-06-22T10:45:13;26.29;41.83
79489;SHT31;68949;53.176;18.088;2023-06-22T10:47:40;26.35;41.73
79489;SHT31;68949;53.176;18.088;2023-06-22T10:50:08;26.60;42.24
79489;SHT31;68949;53.176;18.088;2023-06-22T10:52:35;26.68;41.79
79489;SHT31;68949;53.176;18.088;2023-06-22T10:55:02;26.72;42.00
79489;SHT31;68949;53.176;18.088;2023-06-22T10:57:30;26.69;42.32
79489;SHT31;68949;53.176;18.088;2023-06-22T10:59:57;26.81;42.47
79489;SHT31;68949;53.176;18.088;2023-06-22T11:02:24;26.84;41.96
79489;SHT31;68949;53.176;18.088;2023-06-22T11:04:51;26.95;41.75
79489;SHT31;68949;53.176;18.088;2023-06-22T11:07:17;26.99;40.98
79489;SHT31;68949;53.176;18.088;2023-06-22T11:09:44;27.06;41.16
79489;SHT31;68949;53.176;18.088;2023-06-22T11:12:11;27.11;40.59
79489;SHT31;68949;53.176;18.088;2023-06-22T11:14:38;27.25;41.80
79489;SHT31;68949;53.176;18.088;2023-06-22T11:17:05;27.54;42.17
79489;SHT31;68949;53.176;18.088;2023-06-22T11:19:32;27.63;40.36
79489;SHT31;68949;53.176;18.088;2023-06-22T11:21:59;27.56;40.79
79489;SHT31;68949;53.176;18.088;2023-06-22T11:24:25;27.66;40.65
79489;SHT31;68949;53.176;18.088;2023-06-22T11:26:52;27.76;41.09
79489;SHT31;68949;53.176;18.088;2023-06-22T11:29:19;27.83;40.68
79489;SHT31;68949;53.176;18.088;2023-06-22T11:31:45;27.81;40.47
79489;SHT31;68949;53.176;18.088;2023-06-22T11:34:12;27.82;39.59
79489;SHT31;68949;53.176;18.088;2023-06-22T11:36:39;27.73;39.86
79489;SHT31;68949;53.176;18.088;2023-06-22T11:39:07;27.79;39.80
79489;SHT31;68949;53.176;18.088;2023-06-22T11:41:36;27.95;39.09
79489;SHT31;68949;53.176;18.088;2023-06-22T11:44:02;27.77;37.12
79489;SHT31;68949;53.176;18.088;2023-06-22T11:46:31;27.77;38.30
79489;SHT31;68949;53.176;18.088;2023-06-22T11:48:58;27.83;37.84
79489;SHT31;68949;53.176;18.088;2023-06-22T11:51:25;27.86;37.65
79489;SHT31;68949;53.176;18.088;2023-06-22T11:53:53;27.88;37.93
79489;SHT31;68949;53.176;18.088;2023-06-22T11:56:20;27.96;36.93
79489;SHT31;68949;53.176;18.088;2023-06-22T11:58:47;27.84;35.79
79489;SHT31;68949;53.176;18.088;2023-06-22T12:01:13;27.84;36.33
79489;SHT31;68949;53.176;18.088;2023-06-22T12:03:41;27.88;36.82
79489;SHT31;68949;53.176;18.088;2023-06-22T12:06:10;28.01;37.24
79489;SHT31;68949;53.176;18.088;2023-06-22T12:08:37;28.04;37.64
79489;SHT31;68949;53.176;18.088;2023-06-22T12:11:04;28.13;37.38
79489;SHT31;68949;53.176;18.088;2023-06-22T12:13:30;28.11;37.22
79489;SHT31;68949;53.176;18.088;2023-06-22T12:15:57;28.14;37.50
79489;SHT31;68949;53.176;18.088;2023-06-22T12:18:24;28.23;37.11
79489;SHT31;68949;53.176;18.088;2023-06-22T12:20:51;28.15;36.05
79489;SHT31;68949;53.176;18.088;2023-06-22T12:23:17;28.10;36.89
79489;SHT31;68949;53.176;18.088;2023-06-22T12:25:44;28.11;37.62
79489;SHT31;68949;53.176;18.088;2023-06-22T12:28:12;28.14;37.05
79489;SHT31;68949;53.176;18.088;2023-06-22T12:30:38;28.07;37.24
79489;SHT31;68949;53.176;18.088;2023-06-22T12:33:05;28.04;37.14
79489;SHT31;68949;53.176;18.088;2023-06-22T12:35:32;28.11;36.68
79489;SHT31;68949;53.176;18.088;2023-06-22T12:37:59;28.18;37.15
79489;SHT31;68949;53.176;18.088;2023-06-22T12:40:25;28.20;36.47
79489;SHT31;68949;53.176;18.088;2023-06-22T12:42:52;28.15;36.67
79489;SHT31;68949;53.176;18.088;2023-06-22T12:45:19;28.21;36.84
79489;SHT31;68949;53.176;18.088;2023-06-22T12:47:47;28.26;36.66
79489;SHT31;68949;53.176;18.088;2023-06-22T12:50:16;28.34;36.88
79489;SHT31;68949;53.176;18.088;2023-06-22T12:52:42;28.36;36.56
79489;SHT31;68949;53.176;18.088;2023-06-22T12:55:09;28.45;36.08
79489;SHT31;68949;53.176;18.088;2023-06-22T12:57:36;28.51;36.69
79489;SHT31;68949;53.176;18.088;2023-06-22T13:00:03;28.65;36.74
79489;SHT31;68949;53.176;18.088;2023-06-22T13:02:31;28.56;34.61
79489;SHT31;68949;53.176;18.088;2023-06-22T13:04:58;28.50;35.71
79489;SHT31;68949;53.176;18.088;2023-06-22T13:07:25;28.54;35.97
79489;SHT31;68949;53.176;18.088;2023-06-22T13:09:52;28.56;35.39
79489;SHT31;68949;53.176;18.088;2023-06-22T13:12:19;28.45;35.41
79489;SHT31;68949;53.176;18.088;2023-06-22T13:14:46;28.52;36.48
79489;SHT31;68949;53.176;18.088;2023-06-22T13:17:14;28.68;35.93
79489;SHT31;68949;53.176;18.088;2023-06-22T13:19:41;28.57;34.88
79489;SHT31;68949;53.176;18.088;2023-06-22T13:22:25;28.39;35.62
79489;SHT31;68949;53.176;18.088;2023-06-22T13:24:57;28.37;35.92
79489;SHT31;68949;53.176;18.088;2023-06-22T13:27:25;28.34;35.21
79489;SHT31;68949;53.176;18.088;2023-06-22T13:29:52;28.21;35.50
79489;SHT31;68949;53.176;18.088;2023-06-22T13:32:19;28.28;35.98
79489;SHT31;68949;53.176;18.088;2023-06-22T13:34:46;28.40;36.37
79489;SHT31;68949;53.176;18.088;2023-06-22T13:37:13;28.55;36.10
79489;SHT31;68949;53.176;18.088;2023-06-22T13:39:39;28.66;35.97
79489;SHT31;68949;53.176;18.088;2023-06-22T13:42:06;28.53;35.48
79489;SHT31;68949;53.176;18.088;2023-06-22T13:44:33;28.63;36.23
79489;SHT31;68949;53.176;18.088;2023-06-22T13:47:00;28.75;36.20
79489;SHT31;68949;53.176;18.088;2023-06-22T13:49:27;28.88;36.42
79489;SHT31;68949;53.176;18.088;2023-06-22T13:51:53;28.96;35.86
79489;SHT31;68949;53.176;18.088;2023-06-22T13:54:21;29.00;35.20
79489;SHT31;68949;53.176;18.088;2023-06-22T13:56:48;28.97;34.83
79489;SHT31;68949;53.176;18.088;2023-06-22T13:59:14;28.88;34.93
79489;SHT31;68949;53.176;18.088;2023-06-22T14:01:41;28.90;34.70
79489;SHT31;68949;53.176;18.088;2023-06-22T14:04:09;28.93;34.29
79489;SHT31;68949;53.176;18.088;2023-06-22T14:06:37;29.06;34.57
79489;SHT31;68949;53.176;18.088;2023-06-22T14:09:04;29.11;33.91
79489;SHT31;68949;53.176;18.088;2023-06-22T14:11:31;29.09;33.29
79489;SHT31;68949;53.176;18.088;2023-06-22T14:13:58;29.07;33.68
79489;SHT31;68949;53.176;18.088;2023-06-22T14:16:24;29.08;33.71
79489;SHT31;68949;53.176;18.088;2023-06-22T14:18:51;29.09;33.70
79489;SHT31;68949;53.176;18.088;2023-06-22T14:21:18;29.14;33.69
79489;SHT31;68949;53.176;18.088;2023-06-22T14:23:45;29.11;32.94
79489;SHT31;68949;53.176;18.088;2023-06-22T14:26:15;29.14;33.34
79489;SHT31;68949;53.176;18.088;2023-06-22T14:28:47;29.12;33.33
79489;SHT31;68949;53.176;18.088;2023-06-22T14:31:16;29.07;33.27
79489;SHT31;68949;53.176;18.088;2023-06-22T14:33:45;29.05;34.43
79489;SHT31;68949;53.176;18.088;2023-06-22T14:36:17;29.23;34.48
79489;SHT31;68949;53.176;18.088;2023-06-22T14:38:44;29.41;34.11
79489;SHT31;68949;53.176;18.088;2023-06-22T14:41:10;29.37;32.77
79489;SHT31;68949;53.176;18.088;2023-06-22T14:43:37;29.24;32.56
79489;SHT31;68949;53.176;18.088;2023-06-22T14:46:04;29.23;33.56
79489;SHT31;68949;53.176;18.088;2023-06-22T14:48:30;29.31;33.73
79489;SHT31;68949;53.176;18.088;2023-06-22T14:50:57;29.42;33.23
79489;SHT31;68949;53.176;18.088;2023-06-22T14:53:24;29.47;33.53
79489;SHT31;68949;53.176;18.088;2023-06-22T14:55:51;29.48;33.94
79489;SHT31;68949;53.176;18.088;2023-06-22T14:58:17;29.36;33.74
79489;SHT31;68949;53.176;18.088;2023-06-22T15:00:44;29.37;34.16
79489;SHT31;68949;53.176;18.088;2023-06-22T15:03:11;29.33;33.86
79489;SHT31;68949;53.176;18.088;2023-06-22T15:05:43;29.37;34.41
79489;SHT31;68949;53.176;18.088;2023-06-22T15:08:12;29.42;33.83
79489;SHT31;68949;53.176;18.088;2023-06-22T15:10:39;29.35;32.89
79489;SHT31;68949;53.176;18.088;2023-06-22T15:13:05;29.26;33.38
79489;SHT31;68949;53.176;18.088;2023-06-22T15:15:32;29.21;33.92
79489;SHT31;68949;53.176;18.088;2023-06-22T15:18:00;29.22;34.06
79489;SHT31;68949;53.176;18.088;2023-06-22T15:20:27;29.24;33.90
79489;SHT31;68949;53.176;18.088;2023-06-22T15:22:54;29.19;33.45
79489;SHT31;68949;53.176;18.088;2023-06-22T15:25:21;29.10;33.63
79489;SHT31;68949;53.176;18.088;2023-06-22T15:27:47;29.02;33.74
79489;SHT31;68949;53.176;18.088;2023-06-22T15:30:14;28.96;33.79